Time;durP1;ratioP1;P1;durP2;ratioP2;P2;SDS_P1;SDS_P2;PMS_P1;PMS_P2;Temp;Humidity;BMP_temperature;BMP_pressure;BME280_temperature;BME280_humidity;BME280_pressure;Samples;Min_cycle;Max_cycle;Signal;HPM_P1;HPM_P2
2023/06/11 00:00:24;;;;;;;17.52;7.68;;;18.40;99.90;;;;;;4956489;29;20422;-80
2023/06/11 00:02:56;;;;;;;21.48;7.35;;;18.40;99.90;;;;;;4956656;29;20133;-80
2023/06/11 00:05:24;;;;;;;15.95;6.53;;;18.30;99.90;;;;;;4956390;29;20382;-80
2023/06/11 00:07:51;;;;;;;15.18;7.15;;;18.20;99.90;;;;;;4956125;29;20047;-80
2023/06/11 00:10:18;;;;;;;17.40;7.00;;;18.20;99.90;;;;;;4956190;29;20377;-80
2023/06/11 00:12:44;;;;;;;16.55;6.88;;;18.10;99.90;;;;;;4957035;29;20094;-80
2023/06/11 00:15:11;;;;;;;15.55;6.28;;;18.10;99.90;;;;;;4957233;29;20506;-81
2023/06/11 00:17:38;;;;;;;19.95;6.60;;;18.00;99.90;;;;;;4954910;29;20051;-80
2023/06/11 00:20:11;;;;;;;20.90;7.28;;;18.00;99.90;;;;;;4957039;29;20074;-80
2023/06/11 00:22:38;;;;;;;18.75;7.93;;;18.00;99.90;;;;;;4957128;28;20102;-80
2023/06/11 00:25:04;;;;;;;21.05;7.43;;;17.90;99.90;;;;;;4954145;28;20039;-80
2023/06/11 00:27:31;;;;;;;17.30;6.72;;;17.90;99.90;;;;;;4955652;29;20102;-80
2023/06/11 00:30:01;;;;;;;17.70;7.00;;;17.80;99.90;;;;;;4955582;29;20119;-80
2023/06/11 00:32:27;;;;;;;19.45;6.78;;;17.80;99.90;;;;;;4956919;28;20043;-80
2023/06/11 00:34:54;;;;;;;17.70;7.60;;;17.80;99.90;;;;;;4955911;29;20043;-80
2023/06/11 00:37:22;;;;;;;19.85;7.80;;;17.80;99.90;;;;;;4955313;28;20058;-80
2023/06/11 00:39:49;;;;;;;25.20;7.88;;;17.70;99.90;;;;;;4955819;29;20081;-80
2023/06/11 00:42:19;;;;;;;20.85;8.50;;;17.60;99.90;;;;;;4956054;29;20047;-80
2023/06/11 00:44:47;;;;;;;18.52;7.97;;;17.60;99.90;;;;;;4955791;28;20046;-80
2023/06/11 00:47:14;;;;;;;19.05;7.65;;;17.50;99.90;;;;;;4955170;29;20062;-80
2023/06/11 00:49:40;;;;;;;21.08;7.50;;;17.40;99.90;;;;;;4956629;29;20102;-80
2023/06/11 00:52:12;;;;;;;14.68;7.00;;;17.40;99.90;;;;;;4970539;28;20051;-80
2023/06/11 00:54:38;;;;;;;23.73;8.30;;;17.30;99.90;;;;;;4971909;28;20470;-80
2023/06/11 00:57:06;;;;;;;18.23;7.45;;;17.30;99.90;;;;;;4954338;29;20040;-80
2023/06/11 00:59:34;;;;;;;15.77;6.50;;;17.30;99.90;;;;;;4956585;28;20126;-80
2023/06/11 01:02:01;;;;;;;16.40;7.07;;;17.30;99.90;;;;;;4971747;28;20145;-81
2023/06/11 01:04:29;;;;;;;19.95;8.20;;;17.30;99.90;;;;;;4970412;28;20047;-80
2023/06/11 01:06:57;;;;;;;19.48;7.05;;;17.30;99.90;;;;;;4971275;28;20139;-80
2023/06/11 01:09:24;;;;;;;18.50;8.05;;;17.20;99.90;;;;;;4971309;28;20133;-80
2023/06/11 01:11:54;;;;;;;15.80;6.88;;;17.20;99.90;;;;;;4955430;29;20097;-80
2023/06/11 01:14:22;;;;;;;23.03;7.70;;;17.10;99.90;;;;;;4955605;29;20043;-80
2023/06/11 01:16:52;;;;;;;18.73;7.75;;;17.10;99.90;;;;;;4953884;29;20281;-80
2023/06/11 01:19:19;;;;;;;16.40;7.07;;;17.00;99.90;;;;;;4971564;28;20142;-80
2023/06/11 01:21:46;;;;;;;16.33;6.60;;;16.90;99.90;;;;;;4971536;28;20081;-80
2023/06/11 01:24:15;;;;;;;18.33;6.50;;;16.90;99.90;;;;;;4970465;28;20047;-80
2023/06/11 01:26:42;;;;;;;17.60;6.70;;;16.90;99.90;;;;;;4969987;28;20061;-80
2023/06/11 01:29:11;;;;;;;19.80;7.35;;;16.90;99.90;;;;;;4970961;28;20074;-80
2023/06/11 01:31:39;;;;;;;27.70;8.02;;;16.80;99.90;;;;;;4970205;28;20051;-80
2023/06/11 01:34:08;;;;;;;16.67;7.13;;;16.80;99.90;;;;;;4971164;28;20051;-80
2023/06/11 01:36:36;;;;;;;23.58;7.63;;;16.70;99.90;;;;;;4971745;28;20043;-80
2023/06/11 01:39:04;;;;;;;21.25;7.85;;;16.70;99.90;;;;;;4975332;28;20482;-80
2023/06/11 01:41:39;;;;;;;23.77;7.97;;;16.70;99.90;;;;;;4959071;29;20491;-80
2023/06/11 01:44:06;;;;;;;22.58;8.05;;;16.70;99.90;;;;;;4957807;29;20142;-80
2023/06/11 01:46:33;;;;;;;15.43;6.72;;;16.60;99.90;;;;;;4958496;29;20047;-80
2023/06/11 01:49:00;;;;;;;21.05;8.00;;;16.50;99.90;;;;;;4959734;29;20046;-80
2023/06/11 01:51:27;;;;;;;19.80;7.57;;;16.40;99.90;;;;;;4973933;28;20086;-80
2023/06/11 01:53:55;;;;;;;24.08;7.93;;;16.40;99.90;;;;;;4975063;28;20393;-80
2023/06/11 01:56:21;;;;;;;21.27;7.80;;;16.30;99.90;;;;;;4974345;28;20039;-81
2023/06/11 01:58:48;;;;;;;18.08;7.60;;;16.30;99.90;;;;;;4957620;29;20051;-80
2023/06/11 02:01:15;;;;;;;17.77;7.20;;;16.30;99.90;;;;;;4958644;29;20047;-79
2023/06/11 02:03:42;;;;;;;17.55;6.88;;;16.20;99.90;;;;;;4973694;28;20102;-80
2023/06/11 02:06:10;;;;;;;19.40;7.15;;;16.20;99.90;;;;;;4958121;29;20078;-80
2023/06/11 02:08:37;;;;;;;17.50;7.43;;;16.20;99.90;;;;;;4974599;28;20058;-80
2023/06/11 02:11:04;;;;;;;21.63;7.47;;;16.10;99.90;;;;;;4958225;29;20422;-81
2023/06/11 02:13:30;;;;;;;19.15;7.32;;;16.10;99.90;;;;;;4958600;29;20043;-79
2023/06/11 02:16:01;;;;;;;22.80;7.93;;;16.10;99.90;;;;;;4974109;28;20474;-80
2023/06/11 02:18:27;;;;;;;19.48;7.05;;;16.10;99.90;;;;;;4973418;28;20360;-81
2023/06/11 02:20:54;;;;;;;21.42;7.57;;;16.10;99.90;;;;;;4958361;29;20114;-80
2023/06/11 02:23:21;;;;;;;19.92;7.82;;;16.00;99.90;;;;;;4973238;28;20078;-80
2023/06/11 02:25:48;;;;;;;22.98;7.80;;;16.00;99.90;;;;;;4974356;28;20130;-80
2023/06/11 02:28:15;;;;;;;15.75;7.35;;;16.00;99.90;;;;;;4974592;28;20051;-80
2023/06/11 02:30:42;;;;;;;21.17;7.68;;;16.00;99.90;;;;;;4973092;28;20402;-80
2023/06/11 02:33:09;;;;;;;17.35;6.75;;;16.00;99.90;;;;;;4958127;29;20066;-80
2023/06/11 02:35:36;;;;;;;18.60;7.07;;;16.00;99.90;;;;;;4973710;28;20047;-80
2023/06/11 02:38:05;;;;;;;18.15;6.72;;;16.00;99.90;;;;;;4956836;29;20054;-80
2023/06/11 02:40:32;;;;;;;19.75;6.72;;;16.00;99.90;;;;;;4973997;28;20479;-80
2023/06/11 02:42:58;;;;;;;17.33;6.78;;;16.00;99.90;;;;;;4957863;29;20055;-80
2023/06/11 02:45:25;;;;;;;18.23;7.75;;;16.00;99.90;;;;;;4956354;29;20043;-80
2023/06/11 02:47:52;;;;;;;19.38;7.43;;;15.90;99.90;;;;;;4957012;28;20114;-80
2023/06/11 02:50:19;;;;;;;18.70;7.68;;;15.80;99.90;;;;;;4956534;29;20746;-80
2023/06/11 02:52:45;;;;;;;15.00;6.90;;;15.80;99.90;;;;;;4958571;29;20043;-80
2023/06/11 02:55:12;;;;;;;15.07;5.80;;;15.80;99.90;;;;;;4957582;29;20053;-80
2023/06/11 02:57:40;;;;;;;15.20;6.55;;;15.80;99.90;;;;;;4957946;29;20384;-80
2023/06/11 03:00:08;;;;;;;19.70;7.25;;;15.70;99.90;;;;;;4957833;29;20050;-80
2023/06/11 03:02:35;;;;;;;20.27;7.43;;;15.70;99.90;;;;;;4941865;29;20474;-80
2023/06/11 03:05:02;;;;;;;18.35;7.68;;;15.70;99.90;;;;;;4956428;29;20549;-80
2023/06/11 03:07:30;;;;;;;17.27;6.70;;;15.70;99.90;;;;;;4957152;29;20059;-80
2023/06/11 03:09:56;;;;;;;17.42;7.25;;;15.60;99.90;;;;;;4957447;29;20469;-80
2023/06/11 03:12:23;;;;;;;18.92;7.30;;;15.70;99.90;;;;;;4941013;29;20047;-80
2023/06/11 03:14:51;;;;;;;19.67;7.40;;;15.60;99.90;;;;;;4957481;29;20054;-80
2023/06/11 03:17:18;;;;;;;23.02;7.78;;;15.60;99.90;;;;;;4956733;29;20094;-80
2023/06/11 03:19:44;;;;;;;16.13;6.78;;;15.50;99.90;;;;;;4958181;29;20039;-80
2023/06/11 03:22:11;;;;;;;20.75;7.13;;;15.50;99.90;;;;;;4958238;29;20118;-80
2023/06/11 03:24:38;;;;;;;17.85;6.53;;;15.50;99.90;;;;;;4956155;29;20070;-80
2023/06/11 03:27:15;;;;;;;17.27;6.72;;;15.50;99.90;;;;;;4942254;29;20134;-80
2023/06/11 03:29:42;;;;;;;19.60;7.22;;;15.50;99.90;;;;;;4957727;28;20082;-80
2023/06/11 03:32:10;;;;;;;15.75;7.07;;;15.50;99.90;;;;;;4955854;29;20584;-80
2023/06/11 03:34:42;;;;;;;18.13;6.13;;;15.50;99.90;;;;;;4957011;29;20564;-80
2023/06/11 03:37:10;;;;;;;18.48;7.47;;;15.40;99.90;;;;;;4955602;29;20075;-80
2023/06/11 03:39:37;;;;;;;14.05;6.40;;;15.40;99.90;;;;;;4958068;29;20043;-80
2023/06/11 03:42:04;;;;;;;16.15;6.65;;;15.40;99.90;;;;;;4940972;29;20043;-80
2023/06/11 03:44:31;;;;;;;18.48;7.70;;;15.40;99.90;;;;;;4955696;29;20063;-80
2023/06/11 03:46:58;;;;;;;18.75;6.22;;;15.40;99.90;;;;;;4956215;29;20043;-80
2023/06/11 03:49:24;;;;;;;19.15;7.18;;;15.40;99.90;;;;;;4956705;29;20047;-80
2023/06/11 03:51:51;;;;;;;18.02;6.90;;;15.40;99.90;;;;;;4955665;29;20419;-79
2023/06/11 03:54:18;;;;;;;13.18;5.88;;;15.40;99.90;;;;;;4957617;28;20039;-80
2023/06/11 03:56:45;;;;;;;14.05;6.22;;;15.40;99.90;;;;;;4939343;29;20047;-80
2023/06/11 03:59:13;;;;;;;16.80;6.70;;;15.30;99.90;;;;;;4940554;28;20053;-80
2023/06/11 04:01:40;;;;;;;16.75;6.60;;;15.30;99.90;;;;;;4956481;29;20051;-80
2023/06/11 04:04:07;;;;;;;19.25;6.65;;;15.30;99.90;;;;;;4955431;29;20043;-79
2023/06/11 04:06:35;;;;;;;16.30;6.70;;;15.20;99.90;;;;;;4956245;29;20156;-80
2023/06/11 04:09:02;;;;;;;17.77;7.72;;;15.20;99.90;;;;;;4940473;29;20062;-80
2023/06/11 04:11:29;;;;;;;17.48;7.35;;;15.20;99.90;;;;;;4955317;29;20478;-81
2023/06/11 04:13:56;;;;;;;18.70;7.38;;;15.10;99.90;;;;;;4956128;29;20482;-80
2023/06/11 04:16:22;;;;;;;16.60;7.00;;;15.10;99.90;;;;;;4940050;29;20071;-80
2023/06/11 04:18:49;;;;;;;20.42;7.55;;;15.10;99.90;;;;;;4955157;29;20078;-80
2023/06/11 04:21:16;;;;;;;16.05;6.95;;;15.10;99.90;;;;;;4956191;29;20150;-80
2023/06/11 04:23:43;;;;;;;17.17;7.03;;;15.10;99.90;;;;;;4939200;29;20482;-80
2023/06/11 04:26:10;;;;;;;19.10;6.93;;;15.10;99.90;;;;;;4939890;29;20478;-80
2023/06/11 04:28:44;;;;;;;15.90;7.32;;;15.20;99.90;;;;;;4956033;29;20465;-80
2023/06/11 04:31:11;;;;;;;16.35;6.57;;;15.10;99.90;;;;;;4954877;29;20051;-80
2023/06/11 04:33:40;;;;;;;16.58;6.88;;;15.00;99.90;;;;;;4940381;29;20141;-80
2023/06/11 04:36:08;;;;;;;17.75;7.30;;;15.10;99.90;;;;;;4955441;29;20057;-80
2023/06/11 04:38:37;;;;;;;19.38;7.57;;;15.20;99.90;;;;;;4954910;29;20398;-80
2023/06/11 04:41:11;;;;;;;16.30;7.15;;;15.30;99.90;;;;;;4956021;29;20047;-81
2023/06/11 04:43:40;;;;;;;17.38;6.63;;;15.30;99.90;;;;;;4955040;29;20050;-80
2023/06/11 04:46:07;;;;;;;15.80;6.80;;;15.40;99.90;;;;;;4955677;29;20098;-80
2023/06/11 04:48:37;;;;;;;17.05;7.38;;;15.50;99.90;;;;;;4956601;28;20038;-80
2023/06/11 04:51:04;;;;;;;19.30;7.43;;;15.50;99.90;;;;;;4938784;29;20126;-80
2023/06/11 04:53:37;;;;;;;22.08;7.85;;;15.60;99.90;;;;;;4955677;29;20045;-80
2023/06/11 04:56:05;;;;;;;20.65;6.85;;;15.70;99.90;;;;;;4955249;29;20043;-81
2023/06/11 04:58:36;;;;;;;19.10;6.95;;;15.80;99.90;;;;;;4954687;29;20098;-80
2023/06/11 05:01:05;;;;;;;15.85;6.30;;;15.90;99.90;;;;;;4939761;29;20481;-80
2023/06/11 05:03:32;;;;;;;22.05;7.78;;;16.10;99.90;;;;;;4954656;29;20043;-80
2023/06/11 05:06:02;;;;;;;18.40;7.25;;;16.20;99.90;;;;;;4955101;29;20142;-80
2023/06/11 05:08:29;;;;;;;16.25;7.10;;;16.30;99.90;;;;;;4955552;29;20106;-80
2023/06/11 05:10:58;;;;;;;17.90;7.80;;;16.40;99.90;;;;;;4939825;29;20138;-80
2023/06/11 05:13:27;;;;;;;20.15;7.35;;;16.60;99.90;;;;;;4946448;29;20521;-80
2023/06/11 05:15:58;;;;;;;17.93;7.50;;;16.80;99.90;;;;;;4961545;29;20047;-80
2023/06/11 05:18:25;;;;;;;22.73;7.80;;;16.80;99.90;;;;;;4960757;29;20054;-80
2023/06/11 05:20:54;;;;;;;18.58;7.55;;;17.00;99.90;;;;;;4946108;29;20043;-80
2023/06/11 05:23:28;;;;;;;21.02;7.82;;;17.00;99.90;;;;;;4960773;29;20055;-80
2023/06/11 05:26:12;;;;;;;20.38;8.25;;;17.10;99.90;;;;;;4945929;29;20054;-80
2023/06/11 05:28:43;;;;;;;20.23;7.53;;;17.10;99.90;;;;;;4961722;29;20477;-80
2023/06/11 05:31:12;;;;;;;18.23;8.00;;;17.20;99.90;;;;;;4960627;29;20142;-80
2023/06/11 05:33:42;;;;;;;30.25;8.75;;;17.40;99.90;;;;;;4962087;29;20051;-80
2023/06/11 05:36:09;;;;;;;17.50;7.55;;;17.50;99.90;;;;;;4961255;28;20066;-80
2023/06/11 05:38:37;;;;;;;24.30;8.57;;;17.60;99.90;;;;;;4960893;28;20050;-81
2023/06/11 05:41:04;;;;;;;23.45;8.13;;;17.80;99.90;;;;;;4961632;29;20043;-80
2023/06/11 05:43:32;;;;;;;20.55;8.32;;;17.90;99.90;;;;;;4960624;28;20130;-80
2023/06/11 05:45:59;;;;;;;18.83;8.32;;;18.00;99.90;;;;;;4961129;28;20039;-80
2023/06/11 05:48:29;;;;;;;21.48;8.50;;;18.10;99.90;;;;;;4946422;29;20130;-80
2023/06/11 05:50:55;;;;;;;19.38;8.20;;;18.20;99.90;;;;;;4944692;29;20047;-80
2023/06/11 05:53:23;;;;;;;18.50;8.40;;;18.20;99.90;;;;;;4961520;29;20062;-80
2023/06/11 05:55:50;;;;;;;33.58;8.90;;;18.40;99.90;;;;;;4945406;29;20051;-81
2023/06/11 05:58:22;;;;;;;25.60;8.13;;;18.50;99.90;;;;;;4945151;29;20047;-81
2023/06/11 06:00:50;;;;;;;21.67;8.27;;;18.70;99.90;;;;;;4961425;28;20058;-80
2023/06/11 06:03:16;;;;;;;22.20;8.32;;;18.70;99.90;;;;;;4961534;28;20454;-81
2023/06/11 06:05:43;;;;;;;22.15;7.68;;;18.80;99.90;;;;;;4960522;29;20542;-80
2023/06/11 06:08:11;;;;;;;19.25;8.00;;;18.90;99.90;;;;;;4945686;29;20038;-80
2023/06/11 06:10:38;;;;;;;21.67;8.80;;;19.00;99.90;;;;;;4960313;29;20078;-80
2023/06/11 06:13:05;;;;;;;19.92;8.57;;;19.10;99.90;;;;;;4961419;28;20039;-80
2023/06/11 06:15:32;;;;;;;22.38;8.48;;;19.10;99.90;;;;;;4961191;28;20110;-80
2023/06/11 06:17:59;;;;;;;23.92;8.75;;;19.30;99.90;;;;;;4960761;29;20066;-80
2023/06/11 06:20:35;;;;;;;18.33;8.18;;;19.50;99.90;;;;;;4948538;29;20042;-80
2023/06/11 06:23:02;;;;;;;22.33;7.72;;;19.60;99.90;;;;;;4960306;28;20047;-80
2023/06/11 06:25:29;;;;;;;29.67;9.30;;;19.70;99.90;;;;;;4945631;29;20043;-80
2023/06/11 06:27:57;;;;;;;22.42;7.05;;;19.80;99.90;;;;;;4943727;29;20393;-81
2023/06/11 06:30:23;;;;;;;26.88;7.38;;;19.90;99.90;;;;;;4958871;29;20126;-81
2023/06/11 06:32:50;;;;;;;19.92;7.07;;;20.00;99.90;;;;;;4959311;29;20055;-80
2023/06/11 06:35:18;;;;;;;16.02;6.63;;;20.20;99.90;;;;;;4958357;29;20050;-81
2023/06/11 06:37:46;;;;;;;19.08;7.03;;;20.40;99.90;;;;;;4957064;29;20048;-81
2023/06/11 06:40:13;;;;;;;17.25;6.90;;;20.50;99.90;;;;;;4958397;29;20047;-81
2023/06/11 06:42:40;;;;;;;24.35;6.63;;;20.70;99.90;;;;;;4958049;29;20055;-81
2023/06/11 06:45:13;;;;;;;18.83;6.97;;;20.80;99.90;;;;;;4956807;29;20047;-80
2023/06/11 06:47:41;;;;;;;16.15;6.57;;;20.90;99.90;;;;;;4974112;28;20496;-81
2023/06/11 06:50:08;;;;;;;17.85;6.82;;;21.00;99.90;;;;;;4957506;29;20485;-80
2023/06/11 06:52:35;;;;;;;21.23;6.03;;;21.20;99.90;;;;;;4957864;29;20086;-80
2023/06/11 06:55:02;;;;;;;24.25;6.60;;;21.30;99.90;;;;;;4957495;29;20043;-81
2023/06/11 06:57:30;;;;;;;20.73;6.82;;;21.50;99.90;;;;;;4956805;29;20044;-80
2023/06/11 06:59:57;;;;;;;21.70;6.70;;;21.60;99.90;;;;;;4973767;28;20533;-80
2023/06/11 07:02:24;;;;;;;21.65;6.60;;;21.70;99.90;;;;;;4973818;28;20114;-81
2023/06/11 07:04:55;;;;;;;15.52;6.60;;;21.80;99.90;;;;;;4955958;29;20098;-80
2023/06/11 07:07:24;;;;;;;20.92;7.10;;;22.00;99.90;;;;;;4957520;29;20062;-81
2023/06/11 07:09:51;;;;;;;23.23;6.82;;;22.10;99.90;;;;;;4957418;29;20469;-81
2023/06/11 07:12:19;;;;;;;17.75;7.25;;;22.20;99.90;;;;;;4972575;28;20374;-80
2023/06/11 07:14:45;;;;;;;18.08;6.57;;;22.40;99.90;;;;;;4973243;28;20135;-80
2023/06/11 07:17:12;;;;;;;17.20;5.80;;;22.60;99.90;;;;;;4957191;29;20529;-80
2023/06/11 07:19:39;;;;;;;21.20;6.78;;;22.70;99.90;;;;;;4957347;29;20441;-81
2023/06/11 07:22:05;;;;;;;16.80;6.60;;;22.80;99.90;;;;;;4957249;29;20582;-81
2023/06/11 07:24:35;;;;;;;23.63;7.05;;;23.00;99.90;;;;;;4972371;28;20043;-81
2023/06/11 07:27:03;;;;;;;26.25;6.80;;;23.20;99.90;;;;;;4972907;28;20047;-81
2023/06/11 07:29:30;;;;;;;20.38;6.82;;;23.40;99.90;;;;;;4956945;29;20113;-81
2023/06/11 07:31:57;;;;;;;22.60;7.28;;;23.50;99.90;;;;;;4955984;29;20103;-81
2023/06/11 07:34:24;;;;;;;16.48;6.13;;;23.60;99.90;;;;;;4956522;28;20049;-81
2023/06/11 07:36:51;;;;;;;22.52;7.47;;;23.90;99.90;;;;;;4955586;29;20545;-81
2023/06/11 07:39:19;;;;;;;20.63;7.93;;;24.00;99.90;;;;;;4973041;28;20098;-81
2023/06/11 07:41:46;;;;;;;20.10;8.15;;;24.10;99.90;;;;;;4952955;29;20051;-82
2023/06/11 07:44:13;;;;;;;18.95;6.63;;;24.20;99.90;;;;;;4955327;29;20193;-81
2023/06/11 07:46:40;;;;;;;18.85;6.97;;;24.20;99.90;;;;;;4942788;29;20047;-81
2023/06/11 07:49:16;;;;;;;20.23;7.45;;;24.40;99.90;;;;;;4936949;29;20102;-80
2023/06/11 07:51:46;;;;;;;17.10;7.25;;;24.50;99.90;;;;;;4936297;29;20478;-81
2023/06/11 07:54:14;;;;;;;23.25;7.20;;;24.60;99.90;;;;;;4937038;29;20043;-82
2023/06/11 07:56:41;;;;;;;20.17;7.95;;;24.60;99.90;;;;;;4936551;29;20504;-82
2023/06/11 07:59:08;;;;;;;18.42;7.75;;;24.80;99.90;;;;;;4938119;29;20110;-82
2023/06/11 08:01:36;;;;;;;19.10;9.73;;;24.90;99.90;;;;;;4937649;29;20367;-82
2023/06/11 08:04:25;;;;;;;20.58;8.73;;;25.00;99.90;;;;;;4949322;29;20066;-81
2023/06/11 08:06:53;;;;;;;22.02;9.07;;;24.90;99.90;;;;;;4937759;29;20043;-81
2023/06/11 08:09:19;;;;;;;19.27;9.35;;;24.90;99.90;;;;;;4943663;29;20047;-82
2023/06/11 08:11:46;;;;;;;23.98;9.05;;;25.00;99.90;;;;;;4954030;29;20041;-84
2023/06/11 08:14:13;;;;;;;17.75;8.32;;;25.10;99.90;;;;;;4971227;28;20051;-82
2023/06/11 08:16:40;;;;;;;23.63;9.55;;;25.30;99.90;;;;;;4953480;29;20035;-81
2023/06/11 08:19:07;;;;;;;21.42;7.88;;;25.40;99.90;;;;;;4955377;29;20043;-82
2023/06/11 08:21:35;;;;;;;22.63;9.18;;;25.50;99.90;;;;;;4955265;29;20416;-82
2023/06/11 08:24:02;;;;;;;20.70;9.70;;;25.80;99.90;;;;;;4970082;28;20078;-83
2023/06/11 08:26:29;;;;;;;24.23;8.80;;;26.00;99.90;;;;;;4971048;28;20050;-83
2023/06/11 08:28:56;;;;;;;22.30;9.07;;;26.00;99.90;;;;;;4956696;28;20045;-83
2023/06/11 08:31:24;;;;;;;20.90;8.88;;;26.10;99.90;;;;;;4969841;28;20470;-81
2023/06/11 08:33:51;;;;;;;20.98;8.05;;;26.40;99.90;;;;;;4955597;29;20102;-82
2023/06/11 08:36:18;;;;;;;25.85;9.27;;;26.60;99.90;;;;;;4955034;29;20374;-81
2023/06/11 08:38:45;;;;;;;20.48;9.32;;;26.50;99.90;;;;;;4969487;28;20055;-82
2023/06/11 08:41:12;;;;;;;19.48;9.88;;;26.80;99.90;;;;;;4956138;29;20086;-82
2023/06/11 08:43:39;;;;;;;19.77;9.82;;;27.00;99.90;;;;;;4971626;28;20047;-82
2023/06/11 08:46:05;;;;;;;19.52;9.15;;;27.20;99.90;;;;;;4971240;28;20496;-82
2023/06/11 08:48:32;;;;;;;23.58;10.23;;;27.30;99.90;;;;;;4939986;29;20118;-82
2023/06/11 08:50:59;;;;;;;17.73;10.27;;;27.50;99.90;;;;;;4954635;29;20035;-82
2023/06/11 08:53:26;;;;;;;22.75;10.18;;;27.60;99.90;;;;;;4955756;29;20051;-80
2023/06/11 08:55:53;;;;;;;19.45;9.82;;;27.50;99.90;;;;;;4956163;29;20043;-83
2023/06/11 08:58:20;;;;;;;20.02;8.77;;;27.50;99.90;;;;;;4954700;29;20047;-82
2023/06/11 09:00:47;;;;;;;20.23;9.52;;;27.60;99.90;;;;;;4939706;29;20462;-84
2023/06/11 09:03:17;;;;;;;18.33;9.55;;;27.70;99.90;;;;;;4955583;29;20047;-82
2023/06/11 09:05:47;;;;;;;18.60;9.40;;;27.90;99.90;;;;;;4955799;28;20627;-82
2023/06/11 09:08:14;;;;;;;22.17;10.15;;;28.00;99.90;;;;;;4956489;28;20046;-83
2023/06/11 09:10:43;;;;;;;18.05;9.60;;;28.30;99.90;;;;;;4954571;28;20046;-83
2023/06/11 09:13:10;;;;;;;17.45;9.27;;;28.30;99.90;;;;;;4955408;29;20043;-82
2023/06/11 09:15:39;;;;;;;17.67;9.38;;;28.50;99.90;;;;;;4954582;29;20044;-85
2023/06/11 09:18:09;;;;;;;19.27;9.02;;;28.60;99.90;;;;;;4954545;29;20043;-83
2023/06/11 09:20:36;;;;;;;18.17;8.45;;;28.80;99.90;;;;;;4956411;28;20044;-83
2023/06/11 09:23:03;;;;;;;17.05;8.60;;;29.00;99.90;;;;;;4939517;29;20438;-82
2023/06/11 09:25:29;;;;;;;20.13;9.85;;;29.20;99.90;;;;;;4954001;29;20051;-82
2023/06/11 09:27:56;;;;;;;16.83;8.13;;;29.30;99.90;;;;;;4956364;29;20051;-82
2023/06/11 09:30:23;;;;;;;19.48;9.18;;;29.20;99.90;;;;;;4955052;29;20114;-83
2023/06/11 09:32:49;;;;;;;20.63;9.85;;;29.20;99.90;;;;;;4955232;29;20103;-82
2023/06/11 09:35:16;;;;;;;18.85;9.75;;;29.30;99.90;;;;;;4955816;29;20044;-82
2023/06/11 09:37:49;;;;;;;17.08;8.82;;;29.40;99.90;;;;;;4939085;29;20066;-82
2023/06/11 09:40:16;;;;;;;19.27;8.93;;;29.50;99.90;;;;;;4955394;29;20094;-83
2023/06/11 09:42:43;;;;;;;16.88;8.68;;;29.80;99.90;;;;;;4955177;29;20051;-82
2023/06/11 09:45:11;;;;;;;15.95;8.88;;;30.00;99.90;;;;;;4937447;29;20039;-82
2023/06/11 09:47:38;;;;;;;17.55;8.90;;;30.20;99.90;;;;;;4954886;29;20389;-83
2023/06/11 09:50:04;;;;;;;13.65;8.23;;;30.30;99.90;;;;;;4954204;29;20208;-82
2023/06/11 09:52:31;;;;;;;18.10;9.10;;;30.30;99.90;;;;;;4955198;29;20047;-83
2023/06/11 09:54:58;;;;;;;16.63;8.52;;;30.50;99.90;;;;;;4955730;29;20040;-83
2023/06/11 09:57:25;;;;;;;15.60;8.52;;;30.70;99.90;;;;;;4939075;29;20047;-83
2023/06/11 09:59:51;;;;;;;17.13;8.63;;;30.90;99.90;;;;;;4942704;29;20533;-82
2023/06/11 10:02:18;;;;;;;16.42;8.40;;;30.90;99.90;;;;;;4958995;29;20050;-83
2023/06/11 10:04:45;;;;;;;16.38;8.38;;;31.00;99.90;;;;;;4957260;29;20051;-83
2023/06/11 10:07:12;;;;;;;15.93;8.90;;;31.10;99.90;;;;;;4959629;28;20048;-83
2023/06/11 10:09:39;;;;;;;18.65;9.02;;;31.20;99.90;;;;;;4958575;29;20140;-83
2023/06/11 10:12:06;;;;;;;16.83;8.20;;;31.10;99.90;;;;;;4957542;29;20103;-83
2023/06/11 10:14:33;;;;;;;16.38;8.15;;;31.20;99.90;;;;;;4958927;28;20043;-83
2023/06/11 10:17:02;;;;;;;13.65;8.23;;;30.90;99.90;;;;;;4958343;29;20662;-83
2023/06/11 10:19:28;;;;;;;14.05;8.93;;;31.00;99.90;;;;;;4958384;29;20414;-83
2023/06/11 10:21:55;;;;;;;17.42;8.57;;;31.20;99.90;;;;;;4959239;29;20074;-83
2023/06/11 10:24:22;;;;;;;39.38;9.93;;;31.40;99.90;;;;;;4957359;29;20043;-82
2023/06/11 10:26:49;;;;;;;17.15;8.27;;;31.70;99.40;;;;;;4959016;29;20047;-83
2023/06/11 10:29:22;;;;;;;16.35;7.50;;;32.00;99.30;;;;;;4959525;29;20371;-83
2023/06/11 10:31:49;;;;;;;14.15;7.72;;;32.10;98.50;;;;;;4959350;28;20059;-83
2023/06/11 10:34:15;;;;;;;21.98;8.50;;;32.30;97.40;;;;;;4959285;29;20047;-83
2023/06/11 10:36:42;;;;;;;14.15;7.90;;;32.20;96.60;;;;;;4957806;29;20047;-82
2023/06/11 10:39:09;;;;;;;15.80;7.88;;;32.50;97.00;;;;;;4957849;29;20045;-83
2023/06/11 10:41:36;;;;;;;14.30;7.60;;;32.90;96.70;;;;;;4958860;29;20478;-83
2023/06/11 10:44:03;;;;;;;18.17;8.02;;;33.30;93.60;;;;;;4957915;29;20051;-81
2023/06/11 10:46:30;;;;;;;17.48;8.10;;;33.20;92.90;;;;;;4957455;29;20043;-81
2023/06/11 10:48:56;;;;;;;14.15;8.25;;;33.40;92.50;;;;;;4941958;29;20071;-83
2023/06/11 10:51:23;;;;;;;12.93;7.97;;;33.70;92.10;;;;;;4956613;29;20051;-80
2023/06/11 10:53:51;;;;;;;12.10;7.78;;;33.90;93.00;;;;;;4957758;29;20141;-82
2023/06/11 10:56:17;;;;;;;13.50;7.88;;;34.10;90.60;;;;;;4941409;29;20066;-83
2023/06/11 10:58:44;;;;;;;15.43;8.15;;;34.30;90.90;;;;;;4940694;29;20082;-83
2023/06/11 11:01:11;;;;;;;18.15;7.47;;;34.60;88.60;;;;;;4957651;29;20055;-83
2023/06/11 11:03:38;;;;;;;13.65;7.13;;;35.00;87.90;;;;;;4957486;29;20070;-83
2023/06/11 11:06:05;;;;;;;19.00;7.70;;;35.60;84.70;;;;;;4958178;28;20061;-83
2023/06/11 11:08:32;;;;;;;12.85;7.32;;;35.90;83.40;;;;;;4958149;28;20062;-83
2023/06/11 11:11:02;;;;;;;12.05;7.25;;;36.10;84.10;;;;;;4955825;29;20048;-83
2023/06/11 11:13:28;;;;;;;17.70;7.68;;;36.30;81.10;;;;;;4957404;29;20047;-81
2023/06/11 11:15:56;;;;;;;11.95;7.15;;;36.00;78.50;;;;;;4957874;29;20047;-83
2023/06/11 11:18:22;;;;;;;13.32;7.75;;;35.50;79.40;;;;;;4956279;29;20062;-83
2023/06/11 11:20:49;;;;;;;13.85;7.72;;;35.10;77.70;;;;;;4957519;29;20086;-83
2023/06/11 11:23:16;;;;;;;19.52;7.53;;;35.50;80.90;;;;;;4957068;29;20055;-83
2023/06/11 11:25:43;;;;;;;15.05;8.20;;;35.70;77.10;;;;;;4956536;29;20043;-83
2023/06/11 11:28:10;;;;;;;18.33;8.15;;;35.80;79.40;;;;;;4941369;29;20061;-83
2023/06/11 11:30:36;;;;;;;16.90;7.60;;;36.00;78.10;;;;;;4955697;29;20408;-83
2023/06/11 11:33:03;;;;;;;12.48;7.10;;;35.80;78.00;;;;;;4958013;29;20035;-83
2023/06/11 11:35:30;;;;;;;15.68;7.38;;;36.10;79.40;;;;;;4957553;29;20044;-83
2023/06/11 11:37:57;;;;;;;13.00;7.10;;;36.30;76.20;;;;;;4956963;28;20039;-83
2023/06/11 11:40:24;;;;;;;14.32;7.70;;;36.60;74.20;;;;;;4941273;29;20075;-82
2023/06/11 11:42:50;;;;;;;11.98;7.20;;;36.40;73.70;;;;;;4956851;29;20047;-82
2023/06/11 11:45:17;;;;;;;14.02;6.93;;;36.60;73.70;;;;;;4955218;29;20074;-83
2023/06/11 11:47:44;;;;;;;10.70;6.60;;;36.70;73.00;;;;;;4957732;29;20051;-83
2023/06/11 11:50:11;;;;;;;12.70;6.68;;;36.90;71.10;;;;;;4956348;29;20443;-83
2023/06/11 11:52:38;;;;;;;11.95;6.13;;;36.70;71.00;;;;;;4956648;29;20054;-82
2023/06/11 11:55:05;;;;;;;14.10;7.25;;;36.80;72.30;;;;;;4957173;29;20478;-83
2023/06/11 11:57:32;;;;;;;11.25;6.38;;;37.00;71.70;;;;;;4955405;29;20108;-83
2023/06/11 11:59:58;;;;;;;10.60;6.50;;;37.20;70.10;;;;;;4956636;29;20099;-83
2023/06/11 12:02:26;;;;;;;14.52;6.70;;;37.40;71.10;;;;;;4957313;28;20529;-82
2023/06/11 12:04:57;;;;;;;11.43;6.65;;;37.30;69.50;;;;;;4939011;29;20098;-83
2023/06/11 12:07:24;;;;;;;10.98;6.60;;;37.70;67.80;;;;;;4957378;28;20055;-83
2023/06/11 12:09:51;;;;;;;13.20;6.63;;;37.80;69.50;;;;;;4957368;29;20039;-83
2023/06/11 12:12:17;;;;;;;14.63;6.50;;;38.00;69.50;;;;;;4956161;28;20046;-83
2023/06/11 12:14:44;;;;;;;12.55;6.80;;;38.20;66.50;;;;;;4955871;29;20113;-83
2023/06/11 12:17:11;;;;;;;12.65;6.90;;;38.30;68.10;;;;;;4955178;29;20043;-83
2023/06/11 12:19:41;;;;;;;12.70;6.70;;;38.40;68.30;;;;;;4957194;29;20050;-83
2023/06/11 12:22:08;;;;;;;;;;;38.60;67.70;;;;;;4956588;28;20106;-83
2023/06/11 12:24:36;;;;;;;10.00;6.63;;;38.60;65.80;;;;;;4955809;29;19976;-83
2023/06/11 12:27:03;;;;;;;13.15;6.65;;;38.50;66.60;;;;;;4956994;28;20043;-83
2023/06/11 12:29:35;;;;;;;10.60;7.03;;;38.60;68.40;;;;;;4956920;29;20039;-83
2023/06/11 12:32:01;;;;;;;11.93;7.30;;;38.80;66.60;;;;;;4956183;29;20039;-82
2023/06/11 12:34:30;;;;;;;15.40;7.15;;;38.80;67.00;;;;;;4955856;29;20067;-82
2023/06/11 12:36:57;;;;;;;14.57;7.27;;;38.50;66.50;;;;;;4955430;29;20077;-82
2023/06/11 12:39:24;;;;;;;9.20;6.68;;;38.60;67.30;;;;;;4956086;29;20529;-82